createdAt,value
2023-04-01T00:01:58.389Z,2.92
2023-04-01T00:04:46.845Z,2.45
2023-04-01T00:07:34.894Z,4.30
2023-04-01T00:10:22.664Z,3.47
2023-04-01T00:13:10.574Z,2.95
2023-04-01T00:16:00.147Z,3.38
2023-04-01T00:18:48.851Z,4.07
2023-04-01T00:21:38.043Z,3.75
2023-04-01T00:24:26.236Z,4.70
2023-04-01T00:27:14.018Z,3.78
2023-04-01T00:30:02.261Z,4.43
2023-04-01T00:32:54.161Z,4.47
2023-04-01T00:35:41.898Z,5.32
2023-04-01T00:38:29.599Z,5.10
2023-04-01T00:41:18.299Z,5.28
2023-04-01T00:44:24.638Z,4.22
2023-04-01T00:47:12.483Z,6.78
2023-04-01T00:50:01.009Z,7.20
2023-04-01T00:52:48.772Z,6.07
2023-04-01T00:55:40.601Z,6.65
2023-04-01T00:58:32.959Z,9.35
2023-04-01T01:01:23.436Z,7.45
2023-04-01T01:04:40.604Z,8.65
2023-04-01T01:07:49.422Z,9.27
2023-04-01T01:10:40.261Z,6.43
2023-04-01T01:13:51.934Z,5.75
2023-04-01T01:16:47.397Z,3.95
2023-04-01T01:19:54.243Z,4.03
2023-04-01T01:23:04.215Z,5.18
2023-04-01T01:26:09.558Z,6.05
2023-04-01T01:29:24.208Z,5.50
2023-04-01T01:32:39.520Z,5.18
2023-04-01T01:35:48.750Z,13.90
2023-04-01T01:38:40.312Z,8.77
2023-04-01T01:41:29.903Z,5.20
2023-04-01T01:44:19.165Z,49.97
2023-04-01T01:47:07.234Z,37.78
2023-04-01T01:49:56.787Z,31.05
2023-04-01T01:52:44.552Z,16.30
2023-04-01T01:55:36.608Z,7.35
2023-04-01T01:58:26.617Z,6.47
2023-04-01T02:01:18.789Z,4.60
2023-04-01T02:04:12.370Z,5.63
2023-04-01T02:07:06.411Z,4.95
2023-04-01T02:09:54.690Z,3.83
2023-04-01T02:12:48.035Z,3.50
2023-04-01T02:15:41.948Z,3.35
2023-04-01T02:18:31.326Z,3.45
2023-04-01T02:21:21.664Z,3.42
2023-04-01T02:24:14.284Z,4.60
2023-04-01T02:27:02.143Z,4.30
2023-04-01T02:29:52.392Z,4.00
2023-04-01T02:32:41.156Z,5.07
2023-04-01T02:35:29.029Z,3.47
2023-04-01T02:38:16.992Z,3.63
2023-04-01T02:41:07.379Z,3.20
2023-04-01T02:44:04.917Z,2.78
2023-04-01T02:46:53.957Z,2.95
2023-04-01T02:49:42.926Z,3.20
2023-04-01T02:52:31.045Z,4.00
2023-04-01T02:55:22.040Z,4.45
2023-04-01T02:58:09.938Z,9.07
2023-04-01T03:00:57.618Z,12.20
2023-04-01T03:03:45.700Z,15.57
2023-04-01T03:06:33.321Z,7.25
2023-04-01T03:09:21.110Z,16.52
2023-04-01T03:12:08.721Z,20.33
2023-04-01T03:15:11.434Z,10.40
2023-04-01T03:18:00.605Z,6.60
2023-04-01T03:20:48.530Z,4.95
2023-04-01T03:23:36.350Z,5.43
2023-04-01T03:26:24.235Z,5.18
2023-04-01T03:29:12.027Z,6.00
2023-04-01T03:32:00.158Z,4.82
2023-04-01T03:34:48.246Z,7.80
2023-04-01T03:37:36.205Z,6.13
2023-04-01T03:40:24.327Z,6.18
2023-04-01T03:43:18.209Z,5.68
2023-04-01T03:46:06.194Z,7.40
2023-04-01T03:48:54.057Z,6.50
2023-04-01T03:51:44.135Z,6.10
2023-04-01T03:54:31.964Z,6.45
2023-04-01T03:57:20.268Z,5.43
2023-04-01T04:00:10.051Z,5.25
2023-04-01T04:03:01.867Z,4.88
2023-04-01T04:05:53.721Z,5.32
2023-04-01T04:08:41.584Z,4.90
2023-04-01T04:11:29.462Z,3.83
2023-04-01T04:14:17.540Z,5.07
2023-04-01T04:17:07.397Z,2.92
2023-04-01T04:19:55.051Z,0.95
2023-04-01T04:22:43.258Z,1.83
2023-04-01T04:25:31.347Z,1.08
2023-04-01T04:28:19.208Z,1.25
2023-04-01T04:31:07.902Z,2.03
2023-04-01T04:33:57.014Z,3.03
2023-04-01T04:36:44.681Z,3.63
2023-04-01T04:39:33.236Z,3.83
2023-04-01T04:42:20.931Z,5.35
2023-04-01T04:45:09.071Z,4.00
2023-04-01T04:48:00.331Z,4.65
2023-04-01T04:50:50.822Z,4.75
2023-04-01T04:53:40.642Z,3.40
2023-04-01T04:56:28.401Z,2.60
2023-04-01T04:59:24.615Z,3.58
2023-04-01T05:02:38.592Z,3.47
2023-04-01T05:05:26.291Z,4.68
2023-04-01T05:08:13.949Z,3.17
2023-04-01T05:11:02.477Z,1.33
2023-04-01T05:13:51.835Z,0.98
2023-04-01T05:16:40.022Z,0.80
2023-04-01T05:19:27.844Z,0.38
2023-04-01T05:22:15.746Z,0.77
2023-04-01T05:25:10.930Z,1.17
2023-04-01T05:27:58.532Z,0.63
2023-04-01T05:30:46.665Z,0.50
2023-04-01T05:33:46.205Z,1.30
2023-04-01T05:36:34.037Z,1.60
2023-04-01T05:39:21.871Z,5.20
2023-04-01T05:42:09.997Z,4.03
2023-04-01T05:44:57.743Z,2.50
2023-04-01T05:48:04.211Z,3.80
2023-04-01T05:50:57.805Z,4.25
2023-04-01T05:53:45.772Z,3.22
2023-04-01T05:56:34.865Z,2.90
2023-04-01T05:59:23.285Z,3.03
2023-04-01T06:02:14.110Z,2.22
2023-04-01T06:05:16.170Z,3.30
2023-04-01T06:08:12.292Z,2.65
2023-04-01T06:11:03.092Z,4.18
2023-04-01T06:14:06.796Z,3.65
2023-04-01T06:16:56.058Z,4.32
2023-04-01T06:20:13.665Z,2.42
2023-04-01T06:23:55.736Z,1.98
2023-04-01T06:27:11.544Z,4.28
2023-04-01T06:30:26.191Z,2.20
2023-04-01T06:33:27.381Z,2.45
2023-04-01T06:36:36.449Z,1.77
2023-04-01T06:39:33.166Z,8.18
2023-04-01T06:42:33.456Z,6.97
2023-04-01T06:45:44.295Z,5.45
2023-04-01T06:49:19.208Z,3.58
2023-04-01T06:52:57.558Z,4.07
2023-04-01T06:56:11.345Z,6.05
2023-04-01T06:59:26.397Z,17.58
2023-04-01T07:02:32.736Z,13.20
2023-04-01T07:05:21.421Z,8.82
2023-04-01T07:08:18.827Z,7.35
2023-04-01T07:11:27.609Z,4.28
2023-04-01T07:14:54.734Z,3.25
2023-04-01T07:17:45.146Z,3.75
2023-04-01T07:20:38.972Z,2.97
2023-04-01T07:23:33.440Z,4.07
2023-04-01T07:26:29.905Z,4.10
2023-04-01T07:29:32.080Z,4.25
2023-04-01T07:32:24.145Z,6.60
2023-04-01T07:35:25.616Z,7.32
2023-04-01T07:38:44.800Z,7.75
2023-04-01T07:41:51.491Z,7.65
2023-04-01T07:44:59.600Z,8.32
2023-04-01T07:48:24.780Z,10.10
2023-04-01T07:51:24.947Z,10.57
2023-04-01T07:54:23.137Z,8.95
2023-04-01T07:57:11.378Z,9.73
2023-04-01T08:00:26.910Z,8.95
2023-04-01T08:03:36.925Z,9.75
2023-04-01T08:06:38.535Z,9.70
2023-04-01T08:09:55.624Z,4.72
2023-04-01T08:13:08.081Z,4.68
2023-04-01T08:19:41.572Z,3.13
2023-04-01T08:22:44.675Z,4.55
2023-04-01T08:25:45.952Z,1.33
2023-04-01T08:28:41.769Z,1.20
2023-04-01T08:32:07.263Z,0.63
2023-04-01T08:35:17.028Z,0.63
2023-04-01T08:38:17.594Z,1.40
2023-04-01T08:41:43.010Z,1.25
2023-04-01T08:45:08.599Z,1.08
2023-04-01T08:48:28.844Z,0.70
2023-04-01T08:51:42.593Z,3.58
2023-04-01T08:54:56.744Z,1.55
2023-04-01T08:58:44.197Z,1.27
2023-04-01T09:02:05.930Z,0.73
2023-04-01T09:05:24.081Z,0.20
2023-04-01T09:08:36.671Z,0.50
2023-04-01T09:12:03.385Z,0.38
2023-04-01T09:15:17.720Z,0.60
2023-04-01T09:18:33.420Z,0.93
2023-04-01T09:21:38.904Z,0.63
2023-04-01T09:24:40.325Z,0.40
2023-04-01T09:27:37.023Z,0.40
2023-04-01T09:31:02.965Z,0.30
2023-04-01T09:34:09.035Z,0.57
2023-04-01T09:37:36.399Z,0.22
2023-04-01T09:40:48.565Z,0.70
2023-04-01T09:44:01.161Z,0.80
2023-04-01T09:46:58.609Z,0.40
2023-04-01T09:50:12.220Z,0.50
2023-04-01T09:53:08.309Z,0.60
2023-04-01T09:56:14.194Z,1.08
2023-04-01T09:59:33.980Z,0.60
2023-04-01T10:03:07.519Z,0.60
2023-04-01T10:06:38.233Z,0.68
2023-04-01T10:10:18.609Z,0.50
2023-04-01T10:13:57.625Z,0.80
2023-04-01T10:17:21.653Z,0.55
2023-04-01T10:20:24.271Z,0.50
2023-04-01T10:23:36.393Z,0.25
2023-04-01T10:26:55.081Z,52.08
2023-04-01T10:30:23.396Z,21.15
2023-04-01T10:33:44.890Z,1.83
2023-04-01T10:36:49.253Z,1.02
2023-04-01T10:39:53.545Z,7.70
2023-04-01T10:43:03.817Z,1.25
2023-04-01T10:46:23.230Z,2.20
2023-04-01T10:49:39.024Z,0.68
2023-04-01T10:52:52.615Z,1.35
2023-04-01T10:56:29.494Z,3.08
2023-04-01T11:00:11.128Z,2.00
2023-04-01T11:03:48.104Z,1.73
2023-04-01T11:07:09.348Z,0.85
2023-04-01T11:10:27.401Z,0.45
2023-04-01T11:13:51.187Z,1.95
2023-04-01T11:16:57.270Z,0.82
2023-04-01T11:20:13.015Z,0.80
2023-04-01T11:23:24.758Z,1.10
2023-04-01T11:26:51.549Z,0.80
2023-04-01T11:30:30.671Z,0.60
2023-04-01T11:33:27.696Z,1.75
2023-04-01T11:36:37.755Z,0.70
2023-04-01T11:39:33.969Z,1.40
2023-04-01T11:42:51.570Z,1.10
2023-04-01T11:46:07.066Z,1.48
2023-04-01T11:49:07.098Z,1.90
2023-04-01T11:52:23.148Z,2.17
2023-04-01T11:55:29.962Z,1.50
2023-04-01T11:58:20.491Z,1.15
2023-04-01T12:01:26.727Z,0.95
2023-04-01T12:04:26.593Z,0.90
2023-04-01T12:07:23.337Z,1.02
2023-04-01T12:10:18.865Z,1.23
2023-04-01T12:13:27.570Z,1.63
2023-04-01T12:16:40.907Z,2.38
2023-04-01T12:20:13.086Z,1.48
2023-04-01T12:23:16.436Z,1.35
2023-04-01T12:26:22.913Z,3.15
2023-04-01T12:29:22.910Z,2.92
2023-04-01T12:32:35.169Z,2.72
2023-04-01T12:38:54.919Z,4.20
2023-04-01T12:42:01.161Z,3.35
2023-04-01T12:45:02.770Z,4.10
2023-04-01T12:48:02.592Z,3.30
2023-04-01T12:51:37.924Z,4.47
2023-04-01T12:54:54.633Z,5.28
2023-04-01T12:57:57.273Z,4.57
2023-04-01T13:00:45.210Z,4.00
2023-04-01T13:03:44.741Z,3.47
2023-04-01T13:06:38.489Z,4.38
2023-04-01T13:09:32.814Z,3.38
2023-04-01T13:12:41.510Z,2.85
2023-04-01T13:15:54.009Z,2.58
2023-04-01T13:19:09.967Z,3.17
2023-04-01T13:22:23.571Z,3.58
2023-04-01T13:25:27.208Z,2.42
2023-04-01T13:28:21.979Z,3.55
2023-04-01T13:31:40.516Z,4.40
2023-04-01T13:34:59.199Z,2.63
2023-04-01T13:37:49.728Z,3.85
2023-04-01T13:41:06.393Z,3.70
2023-04-01T13:44:01.278Z,3.42
2023-04-01T13:46:55.145Z,3.65
2023-04-01T13:49:48.577Z,2.63
2023-04-01T13:53:06.462Z,2.75
2023-04-01T13:56:06.105Z,3.38
2023-04-01T13:58:56.509Z,2.30
2023-04-01T14:01:49.680Z,1.33
2023-04-01T14:04:49.426Z,2.55
2023-04-01T14:07:55.325Z,2.60
2023-04-01T14:10:53.865Z,1.30
2023-04-01T14:13:51.592Z,2.72
2023-04-01T14:17:28.677Z,7.70
2023-04-01T14:20:43.838Z,13.05
2023-04-01T14:24:10.018Z,5.75
2023-04-01T14:27:29.288Z,4.07
2023-04-01T14:30:41.054Z,3.00
2023-04-01T14:33:56.446Z,3.38
2023-04-01T14:36:44.053Z,2.90
2023-04-01T14:40:08.814Z,6.43
2023-04-01T14:43:17.072Z,8.85
2023-04-01T14:46:11.131Z,6.20
2023-04-01T14:49:15.011Z,1.83
2023-04-01T14:52:15.860Z,1.67
2023-04-01T14:55:28.560Z,1.85
2023-04-01T14:58:18.590Z,2.50
2023-04-01T15:01:43.639Z,2.20
2023-04-01T15:05:12.233Z,1.73
2023-04-01T15:08:11.785Z,3.08
2023-04-01T15:11:27.462Z,1.92
2023-04-01T15:14:21.537Z,1.80
2023-04-01T15:17:28.839Z,1.65
2023-04-01T15:20:35.749Z,2.55
2023-04-01T15:23:52.724Z,1.85
2023-04-01T15:26:46.152Z,1.98
2023-04-01T15:29:51.994Z,1.48
2023-04-01T15:32:56.519Z,1.33
2023-04-01T15:36:01.499Z,2.22
2023-04-01T15:39:18.159Z,1.80
2023-04-01T15:42:36.417Z,2.38
2023-04-01T15:45:36.367Z,3.80
2023-04-01T15:49:00.694Z,4.40
2023-04-01T15:51:51.368Z,9.73
2023-04-01T15:55:07.807Z,10.25
2023-04-01T15:58:25.437Z,3.58
2023-04-01T16:01:43.372Z,1.15
2023-04-01T16:04:36.687Z,0.82
2023-04-01T16:07:42.929Z,2.05
2023-04-01T16:10:56.572Z,1.30
2023-04-01T16:13:58.404Z,0.60
2023-04-01T16:16:58.074Z,3.90
2023-04-01T16:19:51.668Z,2.25
2023-04-01T16:22:54.873Z,1.63
2023-04-01T16:25:52.262Z,1.45
2023-04-01T16:29:00.727Z,0.73
2023-04-01T16:31:59.397Z,0.63
2023-04-01T16:35:14.565Z,0.30
2023-04-01T16:38:20.230Z,0.30
2023-04-01T16:41:30.033Z,0.63
2023-04-01T16:44:26.565Z,0.30
2023-04-01T16:47:32.618Z,0.10
2023-04-01T16:50:28.988Z,0.10
2023-04-01T16:53:36.857Z,0.10
2023-04-01T16:56:40.777Z,0.20
2023-04-01T16:59:42.090Z,0.17
2023-04-01T17:02:36.975Z,0.20
2023-04-01T17:05:57.020Z,0.30
2023-04-01T17:09:02.018Z,0.30
2023-04-01T17:12:12.084Z,0.30
2023-04-01T17:15:18.347Z,0.77
2023-04-01T17:18:08.857Z,0.98
2023-04-01T17:21:05.021Z,0.32
2023-04-01T17:24:01.059Z,0.35
2023-04-01T17:27:17.770Z,0.82
2023-04-01T17:30:08.545Z,0.75
2023-04-01T17:33:08.023Z,3.63
2023-04-01T17:36:27.819Z,1.55
2023-04-01T17:39:36.536Z,1.00
2023-04-01T17:42:43.210Z,0.65
2023-04-01T17:45:52.014Z,0.57
2023-04-01T17:49:10.633Z,0.50
2023-04-01T17:52:35.239Z,0.32
2023-04-01T17:55:41.182Z,0.25
2023-04-01T17:58:51.356Z,0.55
2023-04-01T18:02:00.102Z,3.97
2023-04-01T18:05:24.049Z,0.98
2023-04-01T18:08:47.572Z,0.30
2023-04-01T18:11:40.728Z,0.60
2023-04-01T18:14:56.259Z,0.20
2023-04-01T18:18:02.319Z,0.10
2023-04-01T18:20:49.948Z,0.30
2023-04-01T18:23:59.164Z,0.25
2023-04-01T18:27:02.611Z,0.63
2023-04-01T18:29:55.826Z,1.05
2023-04-01T18:33:15.326Z,1.38
2023-04-01T18:36:22.935Z,0.50
2023-04-01T18:39:32.120Z,0.38
2023-04-01T18:42:46.807Z,0.45
2023-04-01T18:45:42.117Z,0.30
2023-04-01T18:49:03.966Z,0.30
2023-04-01T18:52:00.810Z,0.27
2023-04-01T18:55:17.104Z,0.32
2023-04-01T18:58:29.157Z,0.28
2023-04-01T19:01:25.925Z,0.75
2023-04-01T19:04:35.435Z,0.30
2023-04-01T19:07:42.635Z,0.60
2023-04-01T19:10:57.554Z,3.92
2023-04-01T19:13:59.821Z,12.23
2023-04-01T19:17:17.590Z,0.55
2023-04-01T19:20:30.624Z,0.45
2023-04-01T19:23:42.364Z,3.13
2023-04-01T19:26:32.857Z,0.50
2023-04-01T19:29:34.605Z,0.40
2023-04-01T19:32:40.720Z,0.28
2023-04-01T19:35:37.254Z,0.10
2023-04-01T19:38:53.530Z,0.17
2023-04-01T19:41:53.189Z,0.10
2023-04-01T19:45:02.191Z,0.52
2023-04-01T19:47:55.843Z,0.10
2023-04-01T19:50:55.650Z,0.10
2023-04-01T19:53:52.731Z,0.10
2023-04-01T19:57:03.839Z,0.10
2023-04-01T20:00:15.928Z,0.13
2023-04-01T20:03:44.962Z,0.20
2023-04-01T20:06:52.037Z,1.33
2023-04-01T20:10:01.299Z,0.47
2023-04-01T20:13:02.992Z,0.40
2023-04-01T20:16:07.321Z,0.10
2023-04-01T20:19:01.232Z,0.17
2023-04-01T20:21:53.473Z,0.30
2023-04-01T20:24:47.892Z,0.47
2023-04-01T20:27:43.276Z,0.30
2023-04-01T20:31:09.008Z,0.40
2023-04-01T20:34:42.386Z,0.30
2023-04-01T20:38:15.889Z,0.50
2023-04-01T20:41:35.811Z,0.40
2023-04-01T20:44:48.093Z,0.08
2023-04-01T20:47:57.225Z,0.32
2023-04-01T20:51:45.156Z,0.25
2023-04-01T20:54:43.850Z,0.28
2023-04-01T20:57:41.762Z,0.55
2023-04-01T21:00:35.285Z,0.40
2023-04-01T21:03:52.874Z,0.32
2023-04-01T21:06:53.933Z,0.22
2023-04-01T21:10:02.975Z,0.38
2023-04-01T21:13:09.817Z,0.40
2023-04-01T21:16:00.218Z,0.20
2023-04-01T21:19:09.835Z,0.30
2023-04-01T21:22:28.620Z,0.57
2023-04-01T21:25:30.652Z,1.00
2023-04-01T21:28:24.502Z,0.25
2023-04-01T21:31:30.099Z,0.50
2023-04-01T21:35:05.207Z,0.40
2023-04-01T21:38:17.699Z,0.57
2023-04-01T21:41:05.594Z,0.55
2023-04-01T21:44:34.945Z,0.60
2023-04-01T21:47:44.108Z,0.45
2023-04-01T21:50:43.737Z,0.88
2023-04-01T21:53:46.490Z,0.70
2023-04-01T21:56:36.837Z,0.60
2023-04-01T21:59:36.238Z,0.43
2023-04-01T22:02:36.021Z,0.70
2023-04-01T22:05:32.392Z,0.77
2023-04-01T22:08:38.201Z,0.85
2023-04-01T22:11:33.799Z,0.70
2023-04-01T22:14:50.503Z,0.90
2023-04-01T22:17:54.474Z,0.68
2023-04-01T22:20:49.378Z,0.70
2023-04-01T22:24:06.305Z,1.23
2023-04-01T22:27:00.156Z,1.48
2023-04-01T22:30:18.546Z,0.93
2023-04-01T22:33:43.557Z,1.52
2023-04-01T22:36:39.257Z,0.95
2023-04-01T22:39:56.182Z,0.40
2023-04-01T22:42:46.633Z,0.40
2023-04-01T22:45:58.293Z,0.30
2023-04-01T22:48:56.179Z,0.33
2023-04-01T22:52:08.888Z,0.35
2023-04-01T22:58:07.175Z,0.30
2023-04-01T23:00:59.861Z,0.20
2023-04-01T23:03:52.687Z,0.52
2023-04-01T23:06:56.736Z,0.20
2023-04-01T23:09:45.248Z,0.30
2023-04-01T23:12:34.825Z,0.15
2023-04-01T23:15:23.100Z,0.40
2023-04-01T23:18:22.146Z,0.15
2023-04-01T23:21:22.198Z,0.10
2023-04-01T23:24:34.287Z,0.20
2023-04-01T23:27:36.291Z,0.10
2023-04-01T23:30:44.175Z,0.20
2023-04-01T23:33:32.949Z,0.20
2023-04-01T23:36:20.899Z,0.10
2023-04-01T23:39:23.854Z,0.10
2023-04-01T23:42:29.461Z,0.28
2023-04-01T23:45:21.955Z,0.25
2023-04-01T23:48:17.665Z,0.10
2023-04-01T23:51:23.024Z,0.17
2023-04-01T23:54:24.580Z,0.10
2023-04-01T23:57:19.068Z,0.00
